Insider Selling

 
Symbol Name Keyword
Filings for:
Note: This page automatically refreshes every three minutes.
  Symbol Owner Relationship Date Cost # Shares Value($) Total Shares Filing
Y! MSFT COURTOIS JEAN PHILIPPE Executive Vice President Feb 15, 2019 $108.14 28,147 3,043,758 497,162 Feb 19, 2019, 06:02 PM
Y! TMK HUTCHISON LARRY M Co-Chaiman & CEO Feb 15, 2019 $83.11 13,000 1,080,366 541,737 Feb 19, 2019, 05:54 PM
Y! GPRE Metzler Michael A EVP - Gas & Power Feb 19, 2019 $15.35 17,052 261,748 44,194 Feb 19, 2019, 05:51 PM
Y! IDXX SZOSTAK M ANNE Director Feb 14, 2019 $208.96 5,906 1,234,091 3,416 Feb 19, 2019, 05:50 PM
Y! LBRT Stock Michael Chief Financial Officer Feb 15, 2019 $17.03 38,114 649,081 1,580,781 Feb 19, 2019, 05:50 PM
Y! LBRT Stock Michael Chief Financial Officer Feb 14, 2019 $17.00 2,701 45,917 1,618,895 Feb 19, 2019, 05:50 PM
Y! DATA Selipsky Adam President and CEO Feb 14, 2019 $129.31 1,938 250,606 225,290 Feb 19, 2019, 05:49 PM
Y! AJG Bay Walter D. General Counsel Feb 15, 2019 $80.00 13,800 1,104,000 12,284 Feb 19, 2019, 05:48 PM
Y! MOGA/MOGB ROCHE PATRICK J Vice President Feb 15, 2019 $93.20 500 46,602 3,761 Feb 19, 2019, 05:46 PM
Y! RBC KNUEPPEL HENRY W Director Feb 15, 2019 $84.02 5,742 482,423 82,283 Feb 19, 2019, 05:45 PM
Y! AJG JOHNSON DAVID S Director Feb 14, 2019 $78.99 2,500 197,484 48,728 Feb 19, 2019, 05:38 PM
Y! AJG JOHNSON DAVID S Director Feb 15, 2019 $79.74 2,500 199,344 46,228 Feb 19, 2019, 05:38 PM
Y! HBCP GUIDRY DARREN E. EVP & Chief Credit Officer Feb 19, 2019 $35.27 3,900 137,562 13,502 Feb 19, 2019, 05:35 PM
Y! HBCP GUIDRY DARREN E. EVP & Chief Credit Officer Feb 14, 2019 $35.42 1,163 41,191 17,402 Feb 19, 2019, 05:35 PM
Y! MRK FRAZIER KENNETH C Chairman, President & CEO Feb 19, 2019 $80.02 42,700 3,416,944 691,950 Feb 19, 2019, 05:35 PM
Y! MRK FRAZIER KENNETH C Chairman, President & CEO Feb 15, 2019 $80.03 92,913 7,436,162 691,950 Feb 19, 2019, 05:35 PM
Y! IQV Rittenmeyer Ronald A Director Feb 14, 2019 $138.00 7,680 1,059,840 59,307 Feb 19, 2019, 05:34 PM
Y! TRUP PLOUF TRICIA Chief Financial Officer Feb 14, 2019 $30.00 2,600 78,000 0 Feb 19, 2019, 05:34 PM
Y! TMK COLEMAN GARY L Co-Chairman & CEO Feb 15, 2019 $83.10 13,000 1,080,362 649,547 Feb 19, 2019, 05:31 PM
Y! IQV BOUSBIB ARI See Remarks Feb 14, 2019 $140.00 96,000 13,440,000 730,137 Feb 19, 2019, 05:29 PM
Y! CWBC PEEPLES WILLIAM R Director Feb 19, 2019 $10.37 20,000 207,304 780,804 Feb 19, 2019, 05:28 PM
Y! WEC LEVERETT ALLEN L Director Feb 14, 2019 $74.35 112,250 8,346,035 39,339 Feb 19, 2019, 05:25 PM
Y! CPF Dean John C Director Feb 19, 2019 $30.00 2,469 74,070 40,927 Feb 19, 2019, 05:24 PM
Y! TSCO MORRIS EDNA Director Feb 15, 2019 $96.19 2,970 285,684 62,427 Feb 19, 2019, 05:22 PM
Y! TSCO MORRIS EDNA Director Feb 14, 2019 $95.76 1,204 115,295 65,397 Feb 19, 2019, 05:22 PM
Y! PFPT Swaroop Bhagwat EVP & GM, Protection Feb 14, 2019 $118.09 1,000 118,086 3,451 Feb 19, 2019, 05:22 PM
Y! PFPT Knight David EVP/GM, Threat Sys Product Grp Feb 14, 2019 $120.16 1,500 180,241 19,662 Feb 19, 2019, 05:21 PM
Y! IMMR Peters Anne Marie GC&VP,IP Licensing&LegalAffrs Feb 15, 2019 $9.89 2,000 19,780 59,110 Feb 19, 2019, 05:20 PM
Y! BLKB MOONEY KEVIN W EVP, Pres Gen Markets Group Feb 14, 2019 $77.59 15,728 1,220,335 73,801 Feb 19, 2019, 05:20 PM
Y! BLKB Gianoni Michael P President and CEO Feb 15, 2019 $77.43 6,763 523,672 317,665 Feb 19, 2019, 05:19 PM
Y! BLKB BOOR ANTHONY W CFO & Exec VP of Fin. & Admin. Feb 15, 2019 $77.33 3,913 302,592 101,622 Feb 19, 2019, 05:18 PM
Y! BLKB BOOR ANTHONY W CFO & Exec VP of Fin. & Admin. Feb 14, 2019 $77.34 9,672 748,076 115,891 Feb 19, 2019, 05:18 PM
Y! ACIA Shah Bhupendra C Vice President of Engineering Feb 14, 2019 $43.38 1,100 47,718 125,921 Feb 19, 2019, 05:18 PM
Y! Z AND ZG Rock Jennifer Chief Accounting Officer Feb 14, 2019 $36.39 432 15,721 21,474 Feb 19, 2019, 05:18 PM
Y! Z AND ZG Beitel David A. Chief Technology Officer Feb 14, 2019 $36.38 728 26,484 39,686 Feb 19, 2019, 05:18 PM
Y! ACIA Rasmussen Christian J. VP Digital Signal Proc&Optics Feb 14, 2019 $43.38 3,379 146,581 621,111 Feb 19, 2019, 05:17 PM
Y! ACIA Mikkelsen Benny P Chief Technology Officer Feb 14, 2019 $43.38 1,810 78,518 874,534 Feb 19, 2019, 05:17 PM
Y! OVLY Martin Ronald C. Director Feb 19, 2019 $17.98 61 1,097 197,279 Feb 19, 2019, 05:17 PM
Y! OVLY Martin Ronald C. Director Feb 15, 2019 $17.98 57 1,025 197,340 Feb 19, 2019, 05:17 PM
Y! Z AND ZG Schwartz Greg M President Media & Marketplaces Feb 14, 2019 $36.38 205 7,458 11,002 Feb 19, 2019, 05:16 PM
Y! Z AND ZG Samuelson Errol G Chief Industry Dev. Officer Feb 15, 2019 $36.62 1,040 38,085 79,972 Feb 19, 2019, 05:16 PM
Y! Z AND ZG Samuelson Errol G Chief Industry Dev. Officer Feb 14, 2019 $36.42 2,448 89,163 81,012 Feb 19, 2019, 05:16 PM
Y! ACIA Givehchi Mehrdad VP of Hardware and Software Feb 14, 2019 $43.38 2,672 115,911 407,741 Feb 19, 2019, 05:16 PM
Y! CMCSA] BLOCK ARTHUR R EVP, GC and Secretary Feb 14, 2019 $37.40 1,966 73,519 58,578 Feb 19, 2019, 05:16 PM
Y! ACIA Gavin John F Chief Financial Officer Feb 14, 2019 $43.38 770 33,403 103,798 Feb 19, 2019, 05:16 PM
Y! ACIA Shanmugaraj Murugesan President & CEO Feb 14, 2019 $43.38 2,669 115,781 729,172 Feb 19, 2019, 05:15 PM
Y! FTNT Whittle John VP CorpDev&Strat Alliance, GC Feb 19, 2019 $83.47 1,252 104,499 8,836 Feb 19, 2019, 05:14 PM
Y! FTNT Whittle John VP CorpDev&Strat Alliance, GC Feb 15, 2019 $83.36 328 27,342 8,684 Feb 19, 2019, 05:14 PM
Y! FTNT Jensen Keith CFO & Chief Accounting Officer Feb 14, 2019 $83.15 4,950 411,586 4,142 Feb 19, 2019, 05:13 PM
Y! FTNT Jensen Keith CFO & Chief Accounting Officer Feb 15, 2019 $83.36 328 27,342 669 Feb 19, 2019, 05:13 PM
Y! BWA STALLKAMP THOMAS T Director Feb 15, 2019 $42.00 6,260 262,920 7,146 Feb 19, 2019, 05:13 PM
Y! NXP ZIMMERMAN GIFFORD R Secretary Feb 14, 2019 $14.41 1,500 21,619 0 Feb 19, 2019, 05:11 PM
Y! MPWR Hsing Michael CEO Feb 14, 2019 $135.07 20,047 2,707,837 1,221,200 Feb 19, 2019, 05:11 PM
Y! CNC BOWERS CHRISTOPHER D EVP, Markets Feb 15, 2019 $65.01 9,200 598,092 121,898 Feb 19, 2019, 05:10 PM
Y! SONO Spence Patrick Chief Executive Officer Feb 15, 2019 $11.45 8,610 98,576 15,017 Feb 19, 2019, 05:09 PM
Y! RAMP Arra James F. President and CCO Feb 15, 2019 $52.54 106,888 5,615,896 181,855 Feb 19, 2019, 05:09 PM
Y! SPR Kadish Ronald T Director Feb 14, 2019 $93.25 10,954 1,021,461 17,180 Feb 19, 2019, 05:09 PM
Y! SONO Millington Nicholas Chief Product Officer Feb 15, 2019 $11.46 15,054 172,520 53,714 Feb 19, 2019, 05:08 PM
Y! SONO Millington Nicholas Chief Product Officer Feb 12, 2019 $11.46 34,946 400,492 68,768 Feb 19, 2019, 05:08 PM
Y! ATRA Haqq Christopher EVP, R&D & Chief Scientific Of Feb 15, 2019 $39.59 775 30,682 271,943 Feb 19, 2019, 05:08 PM
Y! CBM SARGEN GREGORY CFO & EVP, Corp. Dev. Feb 15, 2019 $37.45 5,802 217,285 32,425 Feb 19, 2019, 05:07 PM
Y! CBM Cavanagh Shawn EVP & COO Feb 15, 2019 $37.60 6,769 254,514 32,153 Feb 19, 2019, 05:06 PM
Y! ATRA Porter Derrell SVP, Head of Global Commercial Feb 15, 2019 $40.00 5,909 236,360 21,688 Feb 19, 2019, 05:05 PM
Y! IEX BUCKLEW JEFFREY D SVP-Chief HR Officer Feb 15, 2019 $143.02 2,255 322,499 2,255 Feb 19, 2019, 05:04 PM
Y! YEXT Lerman Howard Chief Executive Officer Feb 15, 2019 $17.99 30,000 539,739 3,997,189 Feb 19, 2019, 05:04 PM
Y! NCLH Del Rio Frank J Pres. & CEO Feb 15, 2019 $52.70 3,077 162,158 292,090 Feb 19, 2019, 05:02 PM
Y! SAIL Rizkallah Juliette Chief Marketing Officer Feb 14, 2019 $32.00 7,490 239,712 39,517 Feb 19, 2019, 05:00 PM
Y! EXLS BAGAI PAVAN President & COO Feb 14, 2019 $61.86 5,000 309,300 45,861 Feb 19, 2019, 05:00 PM
Y! DIOD White Richard Dallas CFO & Secretary Feb 15, 2019 $42.06 18,041 758,792 97,771 Feb 19, 2019, 04:59 PM
Y! DIOD White Richard Dallas CFO & Secretary Feb 14, 2019 $40.00 13,108 524,320 100,812 Feb 19, 2019, 04:59 PM
Y! DIOD Tang Francis VP,Worldwide Discrete Products Feb 15, 2019 $40.91 4,500 184,095 79,770 Feb 19, 2019, 04:58 PM
Y! DIOD Tang Francis VP,Worldwide Discrete Products Feb 14, 2019 $40.27 14,767 594,611 94,682 Feb 19, 2019, 04:58 PM
Y! MNTA WHEELER CRAIG A President & CEO Feb 13, 2019 $12.67 16,875 213,806 178,502 Feb 19, 2019, 04:56 PM
Y! MNTA ROBERTSON MICHELLE Chief Financial Officer Feb 14, 2019 $13.10 703 9,209 11,526 Feb 19, 2019, 04:55 PM
Y! MNTA Manning Anthony M. Chief Scientific Officer Feb 14, 2019 $13.10 4,449 58,282 76,001 Feb 19, 2019, 04:55 PM
Y! DIOD Holland Julie VP WW Analog Products Feb 15, 2019 $40.91 3,250 132,957 56,949 Feb 19, 2019, 04:54 PM
Y! MNTA KWON YOUNG SVP, Chief Business Officer Feb 14, 2019 $13.10 4,450 58,295 126,234 Feb 19, 2019, 04:53 PM
Y! MNTA FIER IAN Chief Mfg and Program Officer Feb 14, 2019 $13.10 4,450 58,295 87,917 Feb 19, 2019, 04:52 PM
Y! MNTA BELTRAMELLO JO ANN Chief HR and Inf. Officer Feb 14, 2019 $13.10 4,450 58,295 150,113 Feb 19, 2019, 04:52 PM
Y! MNTA Carvajal Alejandra Chief Legal Officer Feb 14, 2019 $13.10 703 9,209 15,108 Feb 19, 2019, 04:52 PM
Y! SAIL McClain Mark D. CEO and President Feb 15, 2019 $31.72 1,000 31,715 60,000 Feb 19, 2019, 04:51 PM
Y! SAIL McClain Mark D. CEO and President Feb 15, 2019 $31.72 15,000 475,725 1,185,994 Feb 19, 2019, 04:51 PM
Y! SAIL McClain Mark D. CEO and President Feb 15, 2019 $31.72 1,000 31,715 60,000 Feb 19, 2019, 04:51 PM
Y! SAIL McClain Mark D. CEO and President Feb 15, 2019 $31.72 15,000 475,725 1,529,137 Feb 19, 2019, 04:51 PM
Y! SAIL McClain Mark D. CEO and President Feb 15, 2019 $31.72 1,000 31,715 60,000 Feb 19, 2019, 04:51 PM
Y! MNTA Arroyo Santiago SVP, Chief Medical Officer Feb 14, 2019 $13.10 2,671 34,990 47,922 Feb 19, 2019, 04:51 PM
Y! TTGT Levenson Bruce Director Feb 14, 2019 $15.85 13,404 212,453 690,278 Feb 19, 2019, 04:51 PM
Y! TTGT Levenson Bruce Director Feb 15, 2019 $15.86 15,915 252,412 674,363 Feb 19, 2019, 04:51 PM
Y! DIOD BELTRAN CLEMENTE Vice President Feb 15, 2019 $42.00 1,312 55,104 24,065 Feb 19, 2019, 04:51 PM
Y! DIOD BELTRAN CLEMENTE Vice President Feb 14, 2019 $40.68 546 22,210 24,867 Feb 19, 2019, 04:51 PM
Y! BMCH VERTUCA CARL R JR Director Feb 15, 2019 $18.00 2,500 45,000 64,463 Feb 19, 2019, 04:48 PM
Y! VSAT Lippert Keven K Executive Vice President Feb 15, 2019 $74.61 22,000 1,641,480 2,108 Feb 19, 2019, 04:48 PM
Y! PCTY Beauchamp Steven R Chief Executive Officer Feb 15, 2019 $83.69 40,000 3,347,597 1,885,948 Feb 19, 2019, 04:45 PM
Y! SLGN ALLOTT ANTHONY J President and CEO Feb 19, 2019 $28.62 22,940 656,557 933,905 Feb 19, 2019, 04:39 PM
Y! SLGN ALLOTT ANTHONY J President and CEO Feb 15, 2019 $28.57 15,230 435,112 956,845 Feb 19, 2019, 04:39 PM
Y! SLGN ALLOTT ANTHONY J President and CEO Feb 14, 2019 $28.33 25,320 717,252 972,075 Feb 19, 2019, 04:39 PM
Y! VTR Probst Robert F EVP and CFO Feb 15, 2019 $65.01 10,000 650,134 80,064 Feb 19, 2019, 04:38 PM
Y! AXP Petrino Richard EVP - Corporate Controller Feb 14, 2019 $107.11 2,444 261,777 7,591 Feb 19, 2019, 04:37 PM
Y! TRIP Halpin Dermot President, Rentals&Experiences Feb 15, 2019 $56.69 17,655 1,000,774 11,409 Feb 19, 2019, 04:37 PM
Y! ARE Andrews Thomas J Co-President Feb 14, 2019 $134.18 25,000 3,354,500 146,916 Feb 19, 2019, 04:37 PM
First : Previous : Next : Last
 
Symbol Name Keyword
Filings for:
Note: This page automatically refreshes every three minutes.
Desktop Version
Symbol Owner Relationship Date Value($)
MSFT COURTOIS JEAN PHILIPPE Executive Vice President Feb 15, 2019 3,043,758
TMK HUTCHISON LARRY M Co-Chaiman & CEO Feb 15, 2019 1,080,366
GPRE Metzler Michael A EVP - Gas & Power Feb 19, 2019 261,748
IDXX SZOSTAK M ANNE Director Feb 14, 2019 1,234,091
LBRT Stock Michael Chief Financial Officer Feb 15, 2019 649,081
LBRT Stock Michael Chief Financial Officer Feb 14, 2019 45,917
DATA Selipsky Adam President and CEO Feb 14, 2019 250,606
AJG Bay Walter D. General Counsel Feb 15, 2019 1,104,000
MOGA/MOGB ROCHE PATRICK J Vice President Feb 15, 2019 46,602
RBC KNUEPPEL HENRY W Director Feb 15, 2019 482,423
AJG JOHNSON DAVID S Director Feb 14, 2019 197,484
AJG JOHNSON DAVID S Director Feb 15, 2019 199,344
HBCP GUIDRY DARREN E. EVP & Chief Credit Officer Feb 19, 2019 137,562
HBCP GUIDRY DARREN E. EVP & Chief Credit Officer Feb 14, 2019 41,191
MRK FRAZIER KENNETH C Chairman, President & CEO Feb 19, 2019 3,416,944
MRK FRAZIER KENNETH C Chairman, President & CEO Feb 15, 2019 7,436,162
IQV Rittenmeyer Ronald A Director Feb 14, 2019 1,059,840
TRUP PLOUF TRICIA Chief Financial Officer Feb 14, 2019 78,000
TMK COLEMAN GARY L Co-Chairman & CEO Feb 15, 2019 1,080,362
IQV BOUSBIB ARI See Remarks Feb 14, 2019 13,440,000
CWBC PEEPLES WILLIAM R Director Feb 19, 2019 207,304
WEC LEVERETT ALLEN L Director Feb 14, 2019 8,346,035
CPF Dean John C Director Feb 19, 2019 74,070
TSCO MORRIS EDNA Director Feb 15, 2019 285,684
TSCO MORRIS EDNA Director Feb 14, 2019 115,295
PFPT Swaroop Bhagwat EVP & GM, Protection Feb 14, 2019 118,086
PFPT Knight David EVP/GM, Threat Sys Product Grp Feb 14, 2019 180,241
IMMR Peters Anne Marie GC&VP,IP Licensing&LegalAffrs Feb 15, 2019 19,780
BLKB MOONEY KEVIN W EVP, Pres Gen Markets Group Feb 14, 2019 1,220,335
BLKB Gianoni Michael P President and CEO Feb 15, 2019 523,672
BLKB BOOR ANTHONY W CFO & Exec VP of Fin. & Admin. Feb 15, 2019 302,592
BLKB BOOR ANTHONY W CFO & Exec VP of Fin. & Admin. Feb 14, 2019 748,076
ACIA Shah Bhupendra C Vice President of Engineering Feb 14, 2019 47,718
Z AND ZG Rock Jennifer Chief Accounting Officer Feb 14, 2019 15,721
Z AND ZG Beitel David A. Chief Technology Officer Feb 14, 2019 26,484
ACIA Rasmussen Christian J. VP Digital Signal Proc&Optics Feb 14, 2019 146,581
ACIA Mikkelsen Benny P Chief Technology Officer Feb 14, 2019 78,518
OVLY Martin Ronald C. Director Feb 19, 2019 1,097
OVLY Martin Ronald C. Director Feb 15, 2019 1,025
Z AND ZG Schwartz Greg M President Media & Marketplaces Feb 14, 2019 7,458
Z AND ZG Samuelson Errol G Chief Industry Dev. Officer Feb 15, 2019 38,085
Z AND ZG Samuelson Errol G Chief Industry Dev. Officer Feb 14, 2019 89,163
ACIA Givehchi Mehrdad VP of Hardware and Software Feb 14, 2019 115,911
CMCSA] BLOCK ARTHUR R EVP, GC and Secretary Feb 14, 2019 73,519
ACIA Gavin John F Chief Financial Officer Feb 14, 2019 33,403
ACIA Shanmugaraj Murugesan President & CEO Feb 14, 2019 115,781
FTNT Whittle John VP CorpDev&Strat Alliance, GC Feb 19, 2019 104,499
FTNT Whittle John VP CorpDev&Strat Alliance, GC Feb 15, 2019 27,342
FTNT Jensen Keith CFO & Chief Accounting Officer Feb 14, 2019 411,586
FTNT Jensen Keith CFO & Chief Accounting Officer Feb 15, 2019 27,342
BWA STALLKAMP THOMAS T Director Feb 15, 2019 262,920
NXP ZIMMERMAN GIFFORD R Secretary Feb 14, 2019 21,619
MPWR Hsing Michael CEO Feb 14, 2019 2,707,837
CNC BOWERS CHRISTOPHER D EVP, Markets Feb 15, 2019 598,092
SONO Spence Patrick Chief Executive Officer Feb 15, 2019 98,576
RAMP Arra James F. President and CCO Feb 15, 2019 5,615,896
SPR Kadish Ronald T Director Feb 14, 2019 1,021,461
SONO Millington Nicholas Chief Product Officer Feb 15, 2019 172,520
SONO Millington Nicholas Chief Product Officer Feb 12, 2019 400,492
ATRA Haqq Christopher EVP, R&D & Chief Scientific Of Feb 15, 2019 30,682
CBM SARGEN GREGORY CFO & EVP, Corp. Dev. Feb 15, 2019 217,285
CBM Cavanagh Shawn EVP & COO Feb 15, 2019 254,514
ATRA Porter Derrell SVP, Head of Global Commercial Feb 15, 2019 236,360
IEX BUCKLEW JEFFREY D SVP-Chief HR Officer Feb 15, 2019 322,499
YEXT Lerman Howard Chief Executive Officer Feb 15, 2019 539,739
NCLH Del Rio Frank J Pres. & CEO Feb 15, 2019 162,158
SAIL Rizkallah Juliette Chief Marketing Officer Feb 14, 2019 239,712
EXLS BAGAI PAVAN President & COO Feb 14, 2019 309,300
DIOD White Richard Dallas CFO & Secretary Feb 15, 2019 758,792
DIOD White Richard Dallas CFO & Secretary Feb 14, 2019 524,320
DIOD Tang Francis VP,Worldwide Discrete Products Feb 15, 2019 184,095
DIOD Tang Francis VP,Worldwide Discrete Products Feb 14, 2019 594,611
MNTA WHEELER CRAIG A President & CEO Feb 13, 2019 213,806
MNTA ROBERTSON MICHELLE Chief Financial Officer Feb 14, 2019 9,209
MNTA Manning Anthony M. Chief Scientific Officer Feb 14, 2019 58,282
DIOD Holland Julie VP WW Analog Products Feb 15, 2019 132,957
MNTA KWON YOUNG SVP, Chief Business Officer Feb 14, 2019 58,295
MNTA FIER IAN Chief Mfg and Program Officer Feb 14, 2019 58,295
MNTA BELTRAMELLO JO ANN Chief HR and Inf. Officer Feb 14, 2019 58,295
MNTA Carvajal Alejandra Chief Legal Officer Feb 14, 2019 9,209
SAIL McClain Mark D. CEO and President Feb 15, 2019 31,715
SAIL McClain Mark D. CEO and President Feb 15, 2019 475,725
SAIL McClain Mark D. CEO and President Feb 15, 2019 31,715
SAIL McClain Mark D. CEO and President Feb 15, 2019 475,725
SAIL McClain Mark D. CEO and President Feb 15, 2019 31,715
MNTA Arroyo Santiago SVP, Chief Medical Officer Feb 14, 2019 34,990
TTGT Levenson Bruce Director Feb 14, 2019 212,453
TTGT Levenson Bruce Director Feb 15, 2019 252,412
DIOD BELTRAN CLEMENTE Vice President Feb 15, 2019 55,104
DIOD BELTRAN CLEMENTE Vice President Feb 14, 2019 22,210
BMCH VERTUCA CARL R JR Director Feb 15, 2019 45,000
VSAT Lippert Keven K Executive Vice President Feb 15, 2019 1,641,480
PCTY Beauchamp Steven R Chief Executive Officer Feb 15, 2019 3,347,597
SLGN ALLOTT ANTHONY J President and CEO Feb 19, 2019 656,557
SLGN ALLOTT ANTHONY J President and CEO Feb 15, 2019 435,112
SLGN ALLOTT ANTHONY J President and CEO Feb 14, 2019 717,252
VTR Probst Robert F EVP and CFO Feb 15, 2019 650,134
AXP Petrino Richard EVP - Corporate Controller Feb 14, 2019 261,777
TRIP Halpin Dermot President, Rentals&Experiences Feb 15, 2019 1,000,774
ARE Andrews Thomas J Co-President Feb 14, 2019 3,354,500
First : Previous : Next : Last